F/V Les Antilles — FGPP — position and weather

sailwx.info

Track history (hours):
 
Tides and Currents Weather Stations Pressure Air Temp Water Temp Dewpoint Dewpoint Depression Visibility Wind Speed Wind Dir Waves Ship Positions

F/V Les Antilles

Last reported at 2018-Feb-21 14:15 UTC. Time now 2018-Feb-24 00:51 UTC.
Position N 47°45' W 004°21'.

Length 15 m.

MMSI: 228905000.

Date/timePositionNaut miles runAvg speedWind from/ knotsBaromVisibWave heightAir tempDewpointWater temp
2018-Feb-21 14:15N 47°45' W 004°21'2 5.0
2018-Feb-21 13:50N 47°43' W 004°22'19 0.6
2018-Feb-20 03:44N 47°29' W 004°40'8 0.5
2018-Feb-19 11:39N 47°21' W 004°41'21 3.7
2018-Feb-19 05:56N 47°37' W 004°22'4 8.3
2018-Feb-19 05:29N 47°40' W 004°18'5 8.3
2018-Feb-19 04:50N 47°44' W 004°12'6 7.6
2018-Feb-19 04:01N 47°50' W 004°09'0 0.0
2018-Feb-19 04:00N 47°50' W 004°09'1 0.0
2018-Feb-17 18:45N 47°50' W 004°10'0 0.2
2018-Feb-17 18:30N 47°50' W 004°10'1 2.9
2018-Feb-17 18:00N 47°49' W 004°09'4 8.2
2018-Feb-17 17:30N 47°45' W 004°11'4 8.8
2018-Feb-17 17:00N 47°42' W 004°16'4 8.6
2018-Feb-17 16:30N 47°40' W 004°20'5 8.5
2018-Feb-17 15:58N 47°37' W 004°26'  
2018-Feb-15 05:40N 47°37' W 004°22'1 7.7
2018-Feb-15 05:30N 47°38' W 004°21'4 7.8
2018-Feb-15 04:58N 47°41' W 004°17'5 7.7
2018-Feb-15 04:17N 47°45' W 004°12'3 7.6
2018-Feb-15 03:56N 47°47' W 004°09'3 6.3
2018-Feb-15 03:26N 47°50' W 004°10'0 0.3
2018-Feb-15 02:33N 47°50' W 004°10'0 0.0
2018-Feb-15 02:06N 47°50' W 004°10'0 0.0
2018-Feb-15 01:03N 47°50' W 004°10'0 0.0
2018-Feb-14 21:33N 47°50' W 004°10'0 0.0
2018-Feb-14 17:33N 47°50' W 004°10'0 0.0
2018-Feb-14 15:33N 47°50' W 004°10'0 0.0
2018-Feb-14 13:33N 47°50' W 004°10'0 0.0
2018-Feb-14 12:33N 47°50' W 004°10'0 0.0
2018-Feb-14 11:38N 47°50' W 004°10'0 0.0
2018-Feb-14 10:33N 47°50' W 004°10'0 0.0
2018-Feb-14 05:12N 47°50' W 004°10'0 0.0
2018-Feb-14 04:56N 47°50' W 004°10'0 0.0
2018-Feb-14 04:12N 47°50' W 004°10'0 0.0
2018-Feb-14 03:58N 47°50' W 004°10'0 0.0
2018-Feb-14 02:21N 47°50' W 004°10'0 0.0
2018-Feb-14 00:33N 47°50' W 004°10'0 0.0
2018-Feb-13 23:33N 47°50' W 004°10'0 0.0
2018-Feb-13 22:33N 47°50' W 004°10'0 0.0
2018-Feb-13 21:33N 47°50' W 004°10'0 0.0
2018-Feb-13 20:33N 47°50' W 004°10'0 0.0
2018-Feb-13 19:01N 47°50' W 004°10'0 0.0
2018-Feb-13 17:33N 47°50' W 004°10'0 0.0
2018-Feb-13 15:33N 47°50' W 004°10'0 0.0
2018-Feb-13 09:33N 47°50' W 004°10'0 0.0
2018-Feb-13 08:33N 47°50' W 004°10'0 0.0
2018-Feb-13 07:33N 47°50' W 004°10'0 0.0
2018-Feb-13 05:13N 47°50' W 004°10'0 0.0
2018-Feb-13 04:40N 47°50' W 004°10'0 0.1
2018-Feb-13 03:33N 47°50' W 004°10'0 0.1
2018-Feb-13 02:49N 47°50' W 004°10'3 5.0
2018-Feb-13 02:16N 47°48' W 004°09'2 6.2
2018-Feb-13 01:59N 47°46' W 004°09'3 6.4
2018-Feb-13 01:27N 47°43' W 004°13'3 6.3
2018-Feb-13 00:59N 47°41' W 004°16'3 6.3
2018-Feb-13 00:30N 47°39' W 004°19'3 0.1
2018-Feb-12 00:22N 47°37' W 004°20'4 8.1
2018-Feb-11 23:54N 47°40' W 004°17'4 8.3
2018-Feb-11 23:25N 47°43' W 004°14'5 8.3
2018-Feb-11 22:48N 47°47' W 004°09'3 7.9
2018-Feb-11 22:29N 47°49' W 004°09'1 1.4
2018-Feb-11 21:33N 47°50' W 004°10'0 0.0
2018-Feb-11 21:18N 47°50' W 004°10'0 0.0
2018-Feb-11 18:39N 47°50' W 004°10'0 0.0
2018-Feb-11 17:33N 47°50' W 004°10'0 0.0
2018-Feb-11 16:33N 47°50' W 004°10'  
Track history (hours):
 
Tides and Currents Weather Stations Pressure Air Temp Water Temp Dewpoint Dewpoint Depression Visibility Wind Speed Wind Dir Waves Ship Positions

F/V Les Antilles

Last reported at 2018-Feb-21 14:15 UTC. Time now 2018-Feb-24 00:51 UTC.
Position N 47°45' W 004°21'.

Length 15 m.

MMSI: 228905000.

Date/timePositionNaut miles runAvg speedWind from/ knotsBaromVisibWave heightAir tempDewpointWater temp
2018-Feb-21 14:15N 47°45' W 004°21'2 5.0
2018-Feb-21 13:50N 47°43' W 004°22'19 0.6
2018-Feb-20 03:44N 47°29' W 004°40'8 0.5
2018-Feb-19 11:39N 47°21' W 004°41'21 3.7
2018-Feb-19 05:56N 47°37' W 004°22'4 8.3
2018-Feb-19 05:29N 47°40' W 004°18'5 8.3
2018-Feb-19 04:50N 47°44' W 004°12'6 7.6
2018-Feb-19 04:01N 47°50' W 004°09'0 0.0
2018-Feb-19 04:00N 47°50' W 004°09'1 0.0
2018-Feb-17 18:45N 47°50' W 004°10'0 0.2
2018-Feb-17 18:30N 47°50' W 004°10'1 2.9
2018-Feb-17 18:00N 47°49' W 004°09'4 8.2
2018-Feb-17 17:30N 47°45' W 004°11'4 8.8
2018-Feb-17 17:00N 47°42' W 004°16'4 8.6
2018-Feb-17 16:30N 47°40' W 004°20'5 8.5
2018-Feb-17 15:58N 47°37' W 004°26'  
2018-Feb-15 05:40N 47°37' W 004°22'1 7.7
2018-Feb-15 05:30N 47°38' W 004°21'4 7.8
2018-Feb-15 04:58N 47°41' W 004°17'5 7.7
2018-Feb-15 04:17N 47°45' W 004°12'3 7.6
2018-Feb-15 03:56N 47°47' W 004°09'3 6.3
2018-Feb-15 03:26N 47°50' W 004°10'0 0.3
2018-Feb-15 02:33N 47°50' W 004°10'0 0.0
2018-Feb-15 02:06N 47°50' W 004°10'0 0.0
2018-Feb-15 01:03N 47°50' W 004°10'0 0.0
2018-Feb-14 21:33N 47°50' W 004°10'0 0.0
2018-Feb-14 17:33N 47°50' W 004°10'0 0.0
2018-Feb-14 15:33N 47°50' W 004°10'0 0.0
2018-Feb-14 13:33N 47°50' W 004°10'0 0.0
2018-Feb-14 12:33N 47°50' W 004°10'0 0.0
2018-Feb-14 11:38N 47°50' W 004°10'0 0.0
2018-Feb-14 10:33N 47°50' W 004°10'0 0.0
2018-Feb-14 05:12N 47°50' W 004°10'0 0.0
2018-Feb-14 04:56N 47°50' W 004°10'0 0.0
2018-Feb-14 04:12N 47°50' W 004°10'0 0.0
2018-Feb-14 03:58N 47°50' W 004°10'0 0.0
2018-Feb-14 02:21N 47°50' W 004°10'0 0.0
2018-Feb-14 00:33N 47°50' W 004°10'0 0.0
2018-Feb-13 23:33N 47°50' W 004°10'0 0.0
2018-Feb-13 22:33N 47°50' W 004°10'0 0.0
2018-Feb-13 21:33N 47°50' W 004°10'0 0.0
2018-Feb-13 20:33N 47°50' W 004°10'0 0.0
2018-Feb-13 19:01N 47°50' W 004°10'0 0.0
2018-Feb-13 17:33N 47°50' W 004°10'0 0.0
2018-Feb-13 15:33N 47°50' W 004°10'0 0.0
2018-Feb-13 09:33N 47°50' W 004°10'0 0.0
2018-Feb-13 08:33N 47°50' W 004°10'0 0.0
2018-Feb-13 07:33N 47°50' W 004°10'0 0.0
2018-Feb-13 05:13N 47°50' W 004°10'0 0.0
2018-Feb-13 04:40N 47°50' W 004°10'0 0.1
2018-Feb-13 03:33N 47°50' W 004°10'0 0.1
2018-Feb-13 02:49N 47°50' W 004°10'3 5.0
2018-Feb-13 02:16N 47°48' W 004°09'2 6.2
2018-Feb-13 01:59N 47°46' W 004°09'3 6.4
2018-Feb-13 01:27N 47°43' W 004°13'3 6.3
2018-Feb-13 00:59N 47°41' W 004°16'3 6.3
2018-Feb-13 00:30N 47°39' W 004°19'3 0.1
2018-Feb-12 00:22N 47°37' W 004°20'4 8.1
2018-Feb-11 23:54N 47°40' W 004°17'4 8.3
2018-Feb-11 23:25N 47°43' W 004°14'5 8.3
2018-Feb-11 22:48N 47°47' W 004°09'3 7.9
2018-Feb-11 22:29N 47°49' W 004°09'1 1.4
2018-Feb-11 21:33N 47°50' W 004°10'0 0.0
2018-Feb-11 21:18N 47°50' W 004°10'0 0.0
2018-Feb-11 18:39N 47°50' W 004°10'0 0.0
2018-Feb-11 17:33N 47°50' W 004°10'0 0.0
2018-Feb-11 16:33N 47°50' W 004°10'  

Dump ship's entire track history